Time,TemperatureF,DewpointF,PressureIn,WindDirection,WindDirectionDegrees,WindSpeedMPH,WindSpeedGustMPH,Humidity,HourlyPrecipIn,Conditions,Clouds,dailyrainin,SoftwareType,DateUTC
2013-01-24 00:00:00,23.9,15.5,30.05,SW,214,0.0,0.0,70,0.00,CLR,,0.00,WeatherDisplay:10.37,2013-01-24 05:00:00,
2013-01-24 00:15:00,23.8,15.8,30.04,SW,214,0.0,1.0,71,0.00,CLR,,0.00,WeatherDisplay:10.37,2013-01-24 05:15:00,
2013-01-24 00:30:00,23.6,15.6,30.03,SW,214,0.0,0.0,71,0.00,CLR,,0.00,WeatherDisplay:10.37,2013-01-24 05:30:00,
2013-01-24 00:45:00,23.5,15.5,30.02,SW,214,0.0,0.0,71,0.00,CLR,,0.00,WeatherDisplay:10.37,2013-01-24 05:45:00,
2013-01-24 01:00:00,23.5,15.8,30.02,SW,214,0.0,0.0,72,0.00,CLR,,0.00,WeatherDisplay:10.37,2013-01-24 06:00:00,
2013-01-24 01:15:00,23.6,15.9,30.01,SW,214,0.0,0.0,72,0.00,CLR,,0.00,WeatherDisplay:10.37,2013-01-24 06:15:00,
2013-01-24 01:30:00,23.5,16.1,30.01,SW,214,0.0,1.0,73,0.00,CLR,,0.00,WeatherDisplay:10.37,2013-01-24 06:30:00,
2013-01-24 01:45:00,23.5,16.1,30.01,SW,214,0.0,0.0,73,0.00,CLR,,0.00,WeatherDisplay:10.37,2013-01-24 06:45:00,
2013-01-24 02:00:00,23.4,16.0,30.00,SW,214,0.0,1.0,73,0.00,CLR,,0.00,WeatherDisplay:10.37,2013-01-24 07:00:00,
2013-01-24 02:15:00,23.4,16.3,30.00,SW,214,0.0,1.0,74,0.00,CLR,,0.00,WeatherDisplay:10.37,2013-01-24 07:15:00,
2013-01-24 02:30:00,23.6,16.5,29.99,SW,214,0.0,1.0,74,0.00,CLR,,0.00,WeatherDisplay:10.37,2013-01-24 07:30:00,
2013-01-24 02:45:00,23.7,16.6,29.99,SW,214,0.0,1.0,74,0.00,CLR,,0.00,WeatherDisplay:10.37,2013-01-24 07:45:00,
2013-01-24 03:00:00,23.8,17.0,29.99,SW,214,0.0,0.0,75,0.00,CLR,,0.00,WeatherDisplay:10.37,2013-01-24 08:00:00,
2013-01-24 03:15:00,23.9,17.4,29.99,SW,214,0.0,3.0,76,0.00,CLR,,0.00,WeatherDisplay:10.37,2013-01-24 08:15:00,
2013-01-24 03:30:00,24.0,17.5,29.99,SW,215,0.0,1.0,76,0.00,OVC,,0.00,WeatherDisplay:10.37,2013-01-24 08:30:00,
2013-01-24 03:45:00,24.4,17.9,29.99,SW,215,0.0,0.0,76,0.00,OVC,,0.00,WeatherDisplay:10.37,2013-01-24 08:45:00,
2013-01-24 04:00:00,24.8,18.6,29.98,SW,215,0.0,0.0,77,0.00,OVC,,0.00,WeatherDisplay:10.37,2013-01-24 09:00:00,
2013-01-24 04:15:00,24.9,18.7,29.98,SW,215,0.0,0.0,77,0.00,OVC,,0.00,WeatherDisplay:10.37,2013-01-24 09:15:00,
2013-01-24 04:30:00,24.8,18.6,29.99,SW,215,0.0,0.0,77,0.00,BKN,,0.00,WeatherDisplay:10.37,2013-01-24 09:30:00,
2013-01-24 04:45:00,24.4,18.5,29.99,SW,215,0.0,1.0,78,0.00,BKN,,0.00,WeatherDisplay:10.37,2013-01-24 09:45:00,
2013-01-24 05:00:00,24.2,18.0,30.00,SW,214,0.0,1.0,77,0.00,BKN,,0.00,WeatherDisplay:10.37,2013-01-24 10:00:00,
2013-01-24 05:15:00,24.2,18.3,30.00,SW,214,0.0,1.0,78,0.00,BKN,,0.00,WeatherDisplay:10.37,2013-01-24 10:15:00,
2013-01-24 05:30:00,24.1,18.2,30.01,SW,214,0.0,2.0,78,0.00,OVC,,0.00,WeatherDisplay:10.37,2013-01-24 10:30:00,
2013-01-24 05:45:00,24.3,18.7,30.02,SW,218,0.0,1.0,79,0.00,OVC,,0.00,WeatherDisplay:10.37,2013-01-24 10:45:00,
2013-01-24 06:00:00,24.6,19.3,30.03,SW,218,0.0,1.0,80,0.00,OVC,,0.00,WeatherDisplay:10.37,2013-01-24 11:00:00,
2013-01-24 06:15:00,25.0,19.7,30.03,SW,218,0.0,0.0,80,0.00,OVC,,0.00,WeatherDisplay:10.37,2013-01-24 11:15:00,
2013-01-24 06:30:00,25.0,19.7,30.05,SW,218,0.0,2.0,80,0.00,CLR,,0.00,WeatherDisplay:10.37,2013-01-24 11:30:00,
2013-01-24 06:45:00,25.4,20.1,30.06,SW,217,0.0,2.0,80,0.00,CLR,,0.00,WeatherDisplay:10.37,2013-01-24 11:45:00,
2013-01-24 07:00:00,25.5,20.2,30.07,NNW,347,0.0,4.0,80,0.00,CLR,,0.00,WeatherDisplay:10.37,2013-01-24 12:00:00,
2013-01-24 07:15:00,26.9,21.5,30.09,NW,309,1.0,6.0,80,0.00,CLR,,0.00,WeatherDisplay:10.37,2013-01-24 12:15:00,
2013-01-24 07:30:00,30.1,22.5,30.10,NNW,333,2.0,8.0,73,0.00,CLR,,0.00,WeatherDisplay:10.37,2013-01-24 12:30:00,
2013-01-24 07:45:00,32.4,22.6,30.10,North,354,1.0,7.0,67,0.00,CLR,,0.00,WeatherDisplay:10.37,2013-01-24 12:45:00,
2013-01-24 08:00:00,33.0,22.5,30.12,North,5,2.0,10.0,65,0.00,CLR,,0.00,WeatherDisplay:10.37,2013-01-24 13:00:00,
2013-01-24 08:15:00,33.4,20.6,30.13,NNW,343,5.0,12.0,59,0.00,CLR,,0.00,WeatherDisplay:10.37,2013-01-24 13:15:00,
2013-01-24 08:30:00,34.3,18.0,30.14,NNW,334,10.0,16.0,51,0.00,CLR,,0.00,WeatherDisplay:10.37,2013-01-24 13:30:00,
2013-01-24 08:45:00,35.0,17.3,30.15,NNW,337,7.0,18.0,48,0.00,CLR,,0.00,WeatherDisplay:10.37,2013-01-24 13:45:00,
2013-01-24 09:00:00,35.4,15.1,30.17,NNW,344,8.0,20.0,43,0.00,CLR,,0.00,WeatherDisplay:10.37,2013-01-24 14:00:00,
2013-01-24 09:15:00,35.9,14.4,30.19,NNW,345,7.0,17.0,41,0.00,CLR,,0.00,WeatherDisplay:10.37,2013-01-24 14:15:00,
2013-01-24 09:30:00,36.1,14.6,30.21,NNW,336,10.0,22.0,41,0.00,CLR,,0.00,WeatherDisplay:10.37,2013-01-24 14:30:00,
2013-01-24 09:45:00,36.2,14.7,30.22,NNW,342,9.0,20.0,41,0.00,CLR,,0.00,WeatherDisplay:10.37,2013-01-24 14:45:00,
2013-01-24 10:00:00,36.2,14.7,30.23,NNW,338,7.0,26.0,41,0.00,CLR,,0.00,WeatherDisplay:10.37,2013-01-24 15:00:00,
2013-01-24 10:15:00,36.2,13.0,30.24,NNW,344,14.0,24.0,38,0.00,CLR,,0.00,WeatherDisplay:10.37,2013-01-24 15:15:00,
2013-01-24 10:30:00,36.3,12.5,30.26,NNW,345,9.0,21.0,37,0.00,CLR,,0.00,WeatherDisplay:10.37,2013-01-24 15:30:00,
2013-01-24 10:45:00,36.0,14.5,30.27,North,0,8.0,16.0,41,0.00,CLR,,0.00,WeatherDisplay:10.37,2013-01-24 15:45:00,
2013-01-24 11:00:00,35.5,12.4,30.27,North,349,8.0,23.0,38,0.00,CLR,,0.00,WeatherDisplay:10.37,2013-01-24 16:00:00,
2013-01-24 11:15:00,36.2,12.4,30.29,North,350,5.0,20.0,37,0.00,CLR,,0.00,WeatherDisplay:10.37,2013-01-24 16:15:00,
2013-01-24 11:30:00,35.6,10.6,30.30,NNW,344,5.0,21.0,35,0.00,CLR,,0.00,WeatherDisplay:10.37,2013-01-24 16:30:00,
2013-01-24 11:45:00,35.4,8.4,30.32,NNW,346,14.0,22.0,32,0.00,CLR,,0.00,WeatherDisplay:10.37,2013-01-24 16:45:00,
2013-01-24 12:00:00,34.4,7.5,30.33,North,3,9.0,21.0,32,0.00,CLR,,0.00,WeatherDisplay:10.37,2013-01-24 17:00:00,
2013-01-24 12:15:00,33.3,4.4,30.32,North,349,8.0,23.0,29,0.00,CLR,,0.00,WeatherDisplay:10.37,2013-01-24 17:15:00,
2013-01-24 12:30:00,33.5,3.0,30.33,NNW,347,12.0,25.0,27,0.00,CLR,,0.00,WeatherDisplay:10.37,2013-01-24 17:30:00,
2013-01-24 12:45:00,33.6,4.6,30.33,North,351,9.0,24.0,29,0.00,CLR,,0.00,WeatherDisplay:10.37,2013-01-24 17:45:00,
2013-01-24 13:00:00,34.1,6.5,30.33,North,352,9.0,18.0,31,0.00,CLR,,0.00,WeatherDisplay:10.37,2013-01-24 18:00:00,
2013-01-24 13:15:00,33.7,6.9,30.35,North,355,10.0,21.0,32,0.00,CLR,,0.00,WeatherDisplay:10.37,2013-01-24 18:15:00,
2013-01-24 13:30:00,32.5,3.7,30.36,NNW,345,8.0,22.0,29,0.00,CLR,,0.00,WeatherDisplay:10.37,2013-01-24 18:30:00,
2013-01-24 13:45:00,33.1,5.0,30.35,NNW,344,5.0,18.0,30,0.00,CLR,,0.00,WeatherDisplay:10.37,2013-01-24 18:45:00,
2013-01-24 14:00:00,32.6,4.6,30.36,NNW,336,5.0,16.0,30,0.00,CLR,,0.00,WeatherDisplay:10.37,2013-01-24 19:00:00,
2013-01-24 14:15:00,33.0,4.1,30.36,NW,326,5.0,16.0,29,0.00,CLR,,0.00,WeatherDisplay:10.37,2013-01-24 19:15:00,
2013-01-24 14:30:00,32.3,2.8,30.36,NNW,340,7.0,14.0,28,0.00,CLR,,0.00,WeatherDisplay:10.37,2013-01-24 19:30:00,
2013-01-24 14:45:00,32.5,4.4,30.37,NNW,334,5.0,12.0,30,0.00,CLR,,0.00,WeatherDisplay:10.37,2013-01-24 19:45:00,
2013-01-24 15:00:00,32.7,3.8,30.38,NNW,334,7.0,12.0,29,0.00,CLR,,0.00,WeatherDisplay:10.37,2013-01-24 20:00:00,
2013-01-24 15:15:00,31.8,1.6,30.39,North,355,6.0,13.0,27,0.00,CLR,,0.00,WeatherDisplay:10.37,2013-01-24 20:15:00,
2013-01-24 15:30:00,31.7,2.3,30.39,NNW,345,3.0,12.0,28,0.00,CLR,,0.00,WeatherDisplay:10.37,2013-01-24 20:30:00,
2013-01-24 15:45:00,31.7,1.5,30.40,NNW,334,3.0,13.0,27,0.00,CLR,,0.00,WeatherDisplay:10.37,2013-01-24 20:45:00,
2013-01-24 16:00:00,31.7,2.3,30.41,NNE,19,2.0,10.0,28,0.00,CLR,,0.00,WeatherDisplay:10.37,2013-01-24 21:00:00,
2013-01-24 16:15:00,31.4,2.0,30.42,North,9,5.0,9.0,28,0.00,CLR,,0.00,WeatherDisplay:10.37,2013-01-24 21:15:00,
2013-01-24 16:30:00,30.6,2.1,30.42,NNE,17,2.0,9.0,29,0.00,CLR,,0.00,WeatherDisplay:10.37,2013-01-24 21:30:00,
2013-01-24 16:45:00,30.2,1.7,30.43,NNW,348,5.0,10.0,29,0.00,CLR,,0.00,WeatherDisplay:10.37,2013-01-24 21:45:00,
2013-01-24 17:00:00,29.6,1.2,30.43,North,5,3.0,10.0,29,0.00,CLR,,0.00,WeatherDisplay:10.37,2013-01-24 22:00:00,
2013-01-24 17:15:00,29.1,1.5,30.43,North,1,3.0,12.0,30,0.00,CLR,,0.00,WeatherDisplay:10.37,2013-01-24 22:15:00,
2013-01-24 17:30:00,28.6,1.0,30.43,NNE,17,1.0,9.0,30,0.00,CLR,,0.00,WeatherDisplay:10.37,2013-01-24 22:30:00,
2013-01-24 17:45:00,28.2,0.0,30.44,North,9,2.0,8.0,29,0.00,CLR,,0.00,WeatherDisplay:10.37,2013-01-24 22:45:00,
2013-01-24 18:00:00,27.9,1.1,30.46,North,8,3.0,7.0,31,0.00,CLR,,0.00,WeatherDisplay:10.37,2013-01-24 23:00:00,
2013-01-24 18:15:00,27.5,0.8,30.46,NNW,330,0.0,5.0,31,0.00,CLR,,0.00,WeatherDisplay:10.37,2013-01-24 23:15:00,
2013-01-24 18:30:00,27.2,0.5,30.47,NNE,15,1.0,5.0,31,0.00,CLR,,0.00,WeatherDisplay:10.37,2013-01-24 23:30:00,
2013-01-24 18:45:00,27.0,1.0,30.47,North,1,1.0,6.0,32,0.00,CLR,,0.00,WeatherDisplay:10.37,2013-01-24 23:45:00,
2013-01-24 19:00:00,26.8,1.5,30.47,North,1,2.0,7.0,33,0.00,CLR,,0.00,WeatherDisplay:10.37,2013-01-25 00:00:00,
2013-01-24 19:15:00,26.6,1.3,30.48,North,350,1.0,7.0,33,0.00,CLR,,0.00,WeatherDisplay:10.37,2013-01-25 00:15:00,
2013-01-24 19:30:00,26.5,1.2,30.49,North,9,0.0,7.0,33,0.00,CLR,,0.00,WeatherDisplay:10.37,2013-01-25 00:30:00,
2013-01-24 19:45:00,26.2,1.0,30.48,North,11,5.0,9.0,33,0.00,CLR,,0.00,WeatherDisplay:10.37,2013-01-25 00:45:00,
2013-01-24 20:00:00,26.0,1.4,30.49,North,6,2.0,6.0,34,0.00,CLR,,0.00,WeatherDisplay:10.37,2013-01-25 01:00:00,
2013-01-24 20:15:00,25.6,1.7,30.49,North,349,1.0,7.0,35,0.00,CLR,,0.00,WeatherDisplay:10.37,2013-01-25 01:15:00,
2013-01-24 20:30:00,25.4,1.5,30.49,North,351,0.0,5.0,35,0.00,CLR,,0.00,WeatherDisplay:10.37,2013-01-25 01:30:00,
2013-01-24 20:45:00,25.1,2.4,30.49,North,6,0.0,6.0,37,0.00,CLR,,0.00,WeatherDisplay:10.37,2013-01-25 01:45:00,
2013-01-24 21:00:00,24.8,2.7,30.50,NNE,20,2.0,6.0,38,0.00,CLR,,0.00,WeatherDisplay:10.37,2013-01-25 02:00:00,
2013-01-24 21:15:00,24.7,2.1,30.49,NNE,28,1.0,7.0,37,0.00,CLR,,0.00,WeatherDisplay:10.37,2013-01-25 02:15:00,
2013-01-24 21:30:00,24.7,2.7,30.49,North,2,3.0,10.0,38,0.00,CLR,,0.00,WeatherDisplay:10.37,2013-01-25 02:30:00,
2013-01-24 21:45:00,24.3,2.3,30.49,NNE,22,1.0,7.0,38,0.00,CLR,,0.00,WeatherDisplay:10.37,2013-01-25 02:45:00,
2013-01-24 22:00:00,24.0,2.6,30.48,NNE,21,1.0,8.0,39,0.00,CLR,,0.00,WeatherDisplay:10.37,2013-01-25 03:00:00,
2013-01-24 22:15:00,23.8,3.0,30.48,NNE,30,5.0,13.0,40,0.00,CLR,,0.00,WeatherDisplay:10.37,2013-01-25 03:15:00,
2013-01-24 22:30:00,23.8,2.4,30.48,NNE,15,2.0,12.0,39,0.00,CLR,,0.00,WeatherDisplay:10.37,2013-01-25 03:30:00,
2013-01-24 22:45:00,23.6,2.2,30.48,NNE,27,3.0,10.0,39,0.00,CLR,,0.00,WeatherDisplay:10.37,2013-01-25 03:45:00,
2013-01-24 23:00:00,23.5,2.1,30.49,NNE,24,0.0,10.0,39,0.00,CLR,,0.00,WeatherDisplay:10.37,2013-01-25 04:00:00,
2013-01-24 23:15:00,23.3,2.5,30.49,NE,43,2.0,6.0,40,0.00,CLR,,0.00,WeatherDisplay:10.37,2013-01-25 04:15:00,
2013-01-24 23:30:00,23.2,2.4,30.49,ENE,74,2.0,6.0,40,0.00,CLR,,0.00,WeatherDisplay:10.37,2013-01-25 04:30:00,
2013-01-24 23:45:00,22.9,2.7,30.50,ENE,62,1.0,4.0,41,0.00,CLR,,0.00,WeatherDisplay:10.37,2013-01-25 04:45:00,